Lake Charles Regional Airport Lake Charles US
ICAO: KLCH
IATA: LCH
Category: Medium
Scheduled Services: Yes

Elevation: 15 ft
TransAlt. 18000 ft.

Airport Communications:
APP/DEP:119.35
ATIS:118.75
CLNC DEL:126.25
CTAF:120.7
GND:121.8
DE RIDDER RDO:122.3
TWR:120.7
UNICOM:122.95

KLCH Zoom In..

Runways:

(A) RW 05 length 5200 ft width 100 ft
---- / hdg 49

(B) RW 15 length 6500 ft width 150 ft
ILS 109.10 / hdg 152

(C) RW 23 length 5200 ft width 100 ft
---- / hdg 229

(D) RW 33 length 6500 ft width 150 ft
---- / hdg 332

Location; KLCH
Day. 23 / Time. 14.53 Zulu
* Altimeter: 30.24
* Temperature: 12° c. 53.6°f.
* Wind from: 340° Speed 11 kn.
Dewpoint: -01° c.
Visibility: 10 Statute Miles.
Clouds: Clear (automated report).

KLCH 231453Z 34011KT 10SM CLR 12/M01 A3024 RMK AO2 SLP246 T01171011 51017


Wind From 340°
Speed 11 kn.

YouTube Music Video
 
jpsmedia.com for Web Design  worldairports.se 2018   terms of use